Time;durP1;ratioP1;P1;durP2;ratioP2;P2;SDS_P1;SDS_P2;PMS_P1;PMS_P2;Temp;Humidity;BMP_temperature;BMP_pressure;BME280_temperature;BME280_humidity;BME280_pressure;Samples;Min_cycle;Max_cycle;Signal;HPM_P1;HPM_P2
2022/04/09 00:00:33;;;;;;;14.68;10.65;;;22.40;99.90;;;;;;5011716;28;20133;-55
2022/04/09 00:02:59;;;;;;;15.02;10.23;;;22.40;99.90;;;;;;5012960;28;20117;-53
2022/04/09 00:05:25;;;;;;;12.70;10.50;;;22.40;99.90;;;;;;5015318;28;20080;-53
2022/04/09 00:07:51;;;;;;;16.05;11.23;;;22.30;99.90;;;;;;5015408;28;20032;-56
2022/04/09 00:10:17;;;;;;;14.18;10.05;;;22.30;99.90;;;;;;5015370;28;20021;-52
2022/04/09 00:12:47;;;;;;;13.13;9.68;;;22.30;99.90;;;;;;5015416;28;20112;-54
2022/04/09 00:15:14;;;;;;;16.20;12.45;;;22.30;99.90;;;;;;5015127;28;20017;-55
2022/04/09 00:17:45;;;;;;;17.65;13.18;;;22.30;99.90;;;;;;5015254;28;20219;-54
2022/04/09 00:20:13;;;;;;;13.88;10.88;;;22.30;99.90;;;;;;5013655;28;20057;-55
2022/04/09 00:22:39;;;;;;;14.98;10.52;;;22.30;99.90;;;;;;5014828;28;20117;-54
2022/04/09 00:25:08;;;;;;;17.58;12.20;;;22.30;99.90;;;;;;5014970;28;20133;-55
2022/04/09 00:27:35;;;;;;;15.55;11.55;;;22.30;99.90;;;;;;5014930;28;20026;-54
2022/04/09 00:30:01;;;;;;;19.02;14.68;;;22.30;99.90;;;;;;5014888;28;20022;-53
2022/04/09 00:32:27;;;;;;;20.20;14.23;;;22.30;99.90;;;;;;5030174;28;20018;-55
2022/04/09 00:34:53;;;;;;;18.65;13.05;;;22.30;99.90;;;;;;5014745;28;20026;-54
2022/04/09 00:37:18;;;;;;;16.88;12.30;;;22.30;99.90;;;;;;5015191;28;20599;-53
2022/04/09 00:39:44;;;;;;;16.90;12.60;;;22.30;99.90;;;;;;5014780;28;20018;-54
2022/04/09 00:42:18;;;;;;;15.60;11.60;;;22.30;99.90;;;;;;5014505;28;20041;-53
2022/04/09 00:44:44;;;;;;;15.18;11.23;;;22.20;99.90;;;;;;5014652;28;20018;-54
2022/04/09 00:47:10;;;;;;;17.33;13.13;;;22.20;99.90;;;;;;5014595;28;20033;-54
2022/04/09 00:49:37;;;;;;;17.23;12.65;;;22.20;99.90;;;;;;5014684;28;20026;-54
2022/04/09 00:52:05;;;;;;;19.67;14.55;;;22.20;99.90;;;;;;5014295;28;20026;-54
2022/04/09 00:54:37;;;;;;;20.48;14.45;;;22.20;99.90;;;;;;5013039;28;20033;-55
2022/04/09 00:57:05;;;;;;;18.23;13.63;;;22.20;99.90;;;;;;5014391;28;20057;-54
2022/04/09 00:59:35;;;;;;;20.48;15.52;;;22.20;99.90;;;;;;5030391;23;20049;-65
2022/04/09 01:02:01;;;;;;;21.55;15.80;;;22.20;99.90;;;;;;5034066;28;20175;-60
2022/04/09 01:04:27;;;;;;;20.52;14.07;;;22.20;99.90;;;;;;5032758;28;20030;-61
2022/04/09 01:06:55;;;;;;;22.27;15.75;;;22.20;99.90;;;;;;5034041;28;20022;-64
2022/04/09 01:09:21;;;;;;;22.02;16.17;;;22.20;99.90;;;;;;5034218;28;20116;-63
2022/04/09 01:11:47;;;;;;;20.65;15.00;;;22.20;99.90;;;;;;5033825;28;20100;-64
2022/04/09 01:14:13;;;;;;;20.88;15.57;;;22.10;99.90;;;;;;5032926;28;20045;-66
2022/04/09 01:16:39;;;;;;;22.92;16.75;;;22.10;99.90;;;;;;5032416;28;20388;-66
2022/04/09 01:19:05;;;;;;;19.30;14.68;;;22.20;99.90;;;;;;5034026;28;20116;-62
2022/04/09 01:21:31;;;;;;;19.13;13.65;;;22.10;99.90;;;;;;5033561;28;20075;-63
2022/04/09 01:23:59;;;;;;;21.33;15.75;;;22.10;99.90;;;;;;5033615;28;20033;-63
2022/04/09 01:26:25;;;;;;;19.60;14.93;;;22.10;99.90;;;;;;5033632;28;20029;-64
2022/04/09 01:28:51;;;;;;;23.38;17.08;;;22.10;99.90;;;;;;5033687;28;20025;-64
2022/04/09 01:31:17;;;;;;;20.42;15.85;;;22.10;99.90;;;;;;5033727;28;20033;-65
2022/04/09 01:33:43;;;;;;;21.98;15.52;;;22.10;99.90;;;;;;5032366;28;20040;-63
2022/04/09 01:36:10;;;;;;;18.73;14.15;;;22.10;99.90;;;;;;5033559;28;20375;-64
2022/04/09 01:38:36;;;;;;;20.52;15.90;;;22.10;99.90;;;;;;5032382;28;20039;-64
2022/04/09 01:41:03;;;;;;;21.87;15.60;;;22.10;99.90;;;;;;5033495;28;20438;-64
2022/04/09 01:43:29;;;;;;;18.10;13.65;;;22.00;99.90;;;;;;5033154;28;20041;-66
2022/04/09 01:45:55;;;;;;;20.55;15.18;;;22.00;99.90;;;;;;5033231;28;20384;-65
2022/04/09 01:48:21;;;;;;;19.80;14.82;;;22.00;99.90;;;;;;5033182;28;20021;-70
2022/04/09 01:50:47;;;;;;;18.45;14.02;;;22.00;99.90;;;;;;5031852;28;20026;-70
2022/04/09 01:53:13;;;;;;;19.30;14.48;;;22.00;99.90;;;;;;5033222;28;20028;-71
2022/04/09 01:55:39;;;;;;;17.45;13.52;;;22.00;99.90;;;;;;5031990;28;20032;-71
2022/04/09 01:58:06;;;;;;;18.25;12.68;;;22.00;99.90;;;;;;5033056;28;20037;-65
2022/04/09 02:00:32;;;;;;;18.88;13.68;;;22.00;99.90;;;;;;5033320;28;20088;-65
2022/04/09 02:02:58;;;;;;;14.85;11.13;;;22.00;99.90;;;;;;5033027;28;20462;-65
2022/04/09 02:05:25;;;;;;;17.77;14.25;;;22.00;99.90;;;;;;5032933;28;20048;-66
2022/04/09 02:07:51;;;;;;;18.10;14.17;;;22.00;99.90;;;;;;5032793;28;20030;-66
2022/04/09 02:10:18;;;;;;;17.63;13.63;;;21.90;99.90;;;;;;5032925;28;20140;-67
2022/04/09 02:12:45;;;;;;;17.65;12.95;;;21.90;99.90;;;;;;5033021;28;20092;-67
2022/04/09 02:15:13;;;;;;;18.38;12.70;;;21.90;99.90;;;;;;5032851;28;20029;-66
2022/04/09 02:17:40;;;;;;;17.23;12.50;;;21.90;99.90;;;;;;5032935;28;20439;-65
2022/04/09 02:20:08;;;;;;;17.60;12.98;;;21.90;99.90;;;;;;5032661;28;20148;-65
2022/04/09 02:22:37;;;;;;;16.00;12.02;;;21.90;99.90;;;;;;5032486;28;20033;-65
2022/04/09 02:25:05;;;;;;;16.65;12.38;;;21.90;99.90;;;;;;5032339;28;20043;-65
2022/04/09 02:27:30;;;;;;;18.17;13.35;;;21.90;99.90;;;;;;5032337;28;20163;-67
2022/04/09 02:29:56;;;;;;;16.88;12.27;;;21.90;99.90;;;;;;5032167;28;20079;-66
2022/04/09 02:32:23;;;;;;;18.35;14.10;;;21.90;99.90;;;;;;5032306;28;20025;-64
2022/04/09 02:34:52;;;;;;;17.90;13.40;;;21.90;99.90;;;;;;5032172;28;20022;-64
2022/04/09 02:37:18;;;;;;;16.00;11.23;;;21.90;99.90;;;;;;5032104;28;20191;-66
2022/04/09 02:39:44;;;;;;;15.67;11.90;;;21.90;99.90;;;;;;5032187;28;20021;-64
2022/04/09 02:42:12;;;;;;;18.33;11.93;;;21.90;99.90;;;;;;5032339;28;20037;-64
2022/04/09 02:44:38;;;;;;;;;;;21.90;99.90;;;;;;5032350;28;20487;-63
2022/04/09 02:47:04;;;;;;;16.67;10.40;;;21.90;99.90;;;;;;5032121;28;19992;-66
2022/04/09 02:49:29;;;;;;;16.13;12.27;;;21.90;99.90;;;;;;5030633;28;20030;-66
2022/04/09 02:51:55;;;;;;;17.65;13.35;;;21.90;99.90;;;;;;5032002;28;20492;-67
2022/04/09 02:54:21;;;;;;;15.63;12.00;;;21.90;99.90;;;;;;5031961;28;20496;-66
2022/04/09 02:56:47;;;;;;;17.63;12.63;;;21.80;99.90;;;;;;5031920;28;20376;-67
2022/04/09 02:59:13;;;;;;;14.77;11.30;;;21.80;99.90;;;;;;5032302;28;20067;-68
2022/04/09 03:01:46;;;;;;;14.97;11.60;;;21.80;99.90;;;;;;5032101;28;20057;-67
2022/04/09 03:04:15;;;;;;;16.05;11.80;;;21.80;99.90;;;;;;5030756;28;20041;-67
2022/04/09 03:06:41;;;;;;;13.60;10.93;;;21.80;99.90;;;;;;5031950;28;20090;-67
2022/04/09 03:09:07;;;;;;;14.82;11.40;;;21.80;99.90;;;;;;5031593;28;20472;-67
2022/04/09 03:11:33;;;;;;;14.45;10.68;;;21.80;99.90;;;;;;5031730;28;20484;-67
2022/04/09 03:13:58;;;;;;;14.35;11.02;;;21.80;99.90;;;;;;5031523;28;20109;-67
2022/04/09 03:16:24;;;;;;;13.65;10.38;;;21.80;99.90;;;;;;5031518;28;20491;-67
2022/04/09 03:18:50;;;;;;;14.77;11.40;;;21.80;99.90;;;;;;5031860;28;20041;-67
2022/04/09 03:21:16;;;;;;;13.10;10.10;;;21.80;99.90;;;;;;5030074;28;20028;-67
2022/04/09 03:23:41;;;;;;;15.18;11.48;;;21.80;99.90;;;;;;5031533;28;20385;-67
2022/04/09 03:26:07;;;;;;;13.98;10.35;;;21.80;99.90;;;;;;5031413;28;20069;-67
2022/04/09 03:28:34;;;;;;;16.90;11.00;;;21.80;99.90;;;;;;5031292;28;20025;-69
2022/04/09 03:31:00;;;;;;;14.80;10.80;;;21.70;99.90;;;;;;5030101;28;20040;-68
2022/04/09 03:33:26;;;;;;;14.57;10.88;;;21.80;99.90;;;;;;5031114;28;20060;-68
2022/04/09 03:35:52;;;;;;;16.23;11.43;;;21.80;99.90;;;;;;5031364;28;20032;-64
2022/04/09 03:38:18;;;;;;;12.70;9.60;;;21.80;99.90;;;;;;5029171;28;20079;-64
2022/04/09 03:40:44;;;;;;;14.63;10.35;;;21.80;99.90;;;;;;5031237;28;20141;-64
2022/04/09 03:43:10;;;;;;;14.30;10.43;;;21.70;99.90;;;;;;5031188;28;20033;-64
2022/04/09 03:45:36;;;;;;;13.43;10.52;;;21.80;99.90;;;;;;5031116;28;20033;-64
2022/04/09 03:48:02;;;;;;;14.77;10.40;;;21.70;99.90;;;;;;5030983;28;20025;-63
2022/04/09 03:50:28;;;;;;;12.90;9.55;;;21.70;99.90;;;;;;5031138;28;20026;-64
2022/04/09 03:52:54;;;;;;;12.63;9.75;;;21.70;99.90;;;;;;5031167;28;20052;-65
2022/04/09 03:55:20;;;;;;;12.88;10.00;;;21.80;99.90;;;;;;5031252;28;20053;-64
2022/04/09 03:57:46;;;;;;;13.27;9.90;;;21.70;99.90;;;;;;5031133;28;20022;-63
2022/04/09 04:00:14;;;;;;;13.90;10.30;;;21.70;99.90;;;;;;5030065;28;20049;-67
2022/04/09 04:02:40;;;;;;;14.35;10.45;;;21.70;99.90;;;;;;5031345;28;20030;-66
2022/04/09 04:05:07;;;;;;;13.75;9.77;;;21.70;99.90;;;;;;5031247;28;20469;-66
2022/04/09 04:07:33;;;;;;;12.35;9.05;;;21.70;99.90;;;;;;5030805;28;20030;-66
2022/04/09 04:10:10;;;;;;;12.35;9.18;;;21.70;99.90;;;;;;5030844;28;20484;-66
2022/04/09 04:12:36;;;;;;;11.93;8.75;;;21.70;99.90;;;;;;5030756;28;20017;-65
2022/04/09 04:15:03;;;;;;;11.23;8.43;;;21.70;99.90;;;;;;5030905;28;20030;-67
2022/04/09 04:17:43;;;;;;;11.65;9.35;;;21.70;99.90;;;;;;5031202;28;20076;-67
2022/04/09 04:20:11;;;;;;;13.85;9.35;;;21.70;99.90;;;;;;5030877;28;20021;-68
2022/04/09 04:22:37;;;;;;;10.75;8.05;;;21.70;99.90;;;;;;5030635;28;20033;-70
2022/04/09 04:25:04;;;;;;;12.95;9.68;;;21.70;99.90;;;;;;5030830;28;20037;-68
2022/04/09 04:27:31;;;;;;;11.50;8.50;;;21.70;99.90;;;;;;5030781;28;20032;-68
2022/04/09 04:30:01;;;;;;;13.60;9.13;;;21.70;99.90;;;;;;5030740;28;20040;-63
2022/04/09 04:32:27;;;;;;;12.52;9.10;;;21.60;99.90;;;;;;5030666;28;20037;-65
2022/04/09 04:34:53;;;;;;;11.48;8.82;;;21.70;99.90;;;;;;5030421;28;20033;-65
2022/04/09 04:37:19;;;;;;;12.90;9.30;;;21.70;99.90;;;;;;5030837;28;20021;-65
2022/04/09 04:39:44;;;;;;;12.10;9.27;;;21.70;99.90;;;;;;5030513;28;20037;-66
2022/04/09 04:42:10;;;;;;;12.45;8.95;;;21.70;99.90;;;;;;5030439;28;20553;-66
2022/04/09 04:44:36;;;;;;;11.82;9.27;;;21.60;99.90;;;;;;5030542;28;20184;-66
2022/04/09 04:47:02;;;;;;;12.20;9.15;;;21.60;99.90;;;;;;5031204;28;20096;-68
2022/04/09 04:49:28;;;;;;;13.75;9.88;;;21.60;99.90;;;;;;5032925;28;20100;-64
2022/04/09 04:51:54;;;;;;;13.50;9.93;;;21.60;99.90;;;;;;5034185;28;20105;-64
2022/04/09 04:54:21;;;;;;;13.80;9.35;;;21.60;99.90;;;;;;5034476;28;20053;-64
2022/04/09 04:56:47;;;;;;;12.73;9.13;;;21.60;99.90;;;;;;5034302;28;20017;-64
2022/04/09 04:59:15;;;;;;;14.85;9.90;;;21.60;99.90;;;;;;5033902;28;20039;-64
2022/04/09 05:01:41;;;;;;;12.40;8.63;;;21.60;99.90;;;;;;5032745;28;20278;-64
2022/04/09 05:04:07;;;;;;;12.52;9.35;;;21.60;99.90;;;;;;5033935;28;20386;-63
2022/04/09 05:06:33;;;;;;;12.63;9.30;;;21.60;99.90;;;;;;5032730;28;20026;-64
2022/04/09 05:08:59;;;;;;;12.38;9.80;;;21.60;99.90;;;;;;5034091;28;20030;-64
2022/04/09 05:11:25;;;;;;;11.43;9.20;;;21.60;99.90;;;;;;5033907;28;20025;-64
2022/04/09 05:13:50;;;;;;;15.00;10.65;;;21.50;99.90;;;;;;5034191;28;20025;-64
2022/04/09 05:16:16;;;;;;;13.60;9.68;;;21.50;99.90;;;;;;5033762;28;20459;-64
2022/04/09 05:18:42;;;;;;;13.35;10.02;;;21.60;99.90;;;;;;5034031;28;20095;-64
2022/04/09 05:21:08;;;;;;;13.32;9.93;;;21.60;99.90;;;;;;5033784;28;20029;-63
2022/04/09 05:23:34;;;;;;;14.75;10.10;;;21.50;99.90;;;;;;5033665;28;20112;-64
2022/04/09 05:25:59;;;;;;;14.75;11.13;;;21.50;99.90;;;;;;5032330;28;20029;-63
2022/04/09 05:28:25;;;;;;;15.32;10.93;;;21.50;99.90;;;;;;5033594;28;20113;-65
2022/04/09 05:30:51;;;;;;;14.55;10.82;;;21.50;99.90;;;;;;5033568;28;20071;-65
2022/04/09 05:33:18;;;;;;;17.73;11.32;;;21.50;99.90;;;;;;5033724;28;20083;-66
2022/04/09 05:35:44;;;;;;;17.30;12.02;;;21.50;99.90;;;;;;5033447;28;20021;-65
2022/04/09 05:38:10;;;;;;;16.05;12.40;;;21.50;99.90;;;;;;5033465;28;20393;-65
2022/04/09 05:40:37;;;;;;;14.60;10.95;;;21.50;99.90;;;;;;5033270;28;20026;-68
2022/04/09 05:43:04;;;;;;;15.35;12.05;;;21.50;99.90;;;;;;5033260;28;20535;-69
2022/04/09 05:45:29;;;;;;;14.95;11.75;;;21.50;99.90;;;;;;5033221;28;20357;-68
2022/04/09 05:47:55;;;;;;;16.52;10.93;;;21.50;99.90;;;;;;5033049;28;20022;-68
2022/04/09 05:50:21;;;;;;;18.73;13.80;;;21.50;99.90;;;;;;5033563;28;20439;-69
2022/04/09 05:52:49;;;;;;;16.48;12.70;;;21.50;99.90;;;;;;5033112;28;20093;-69
2022/04/09 05:55:17;;;;;;;17.25;12.93;;;21.50;99.90;;;;;;5031693;28;20032;-68
2022/04/09 05:57:43;;;;;;;16.25;12.27;;;21.50;99.90;;;;;;5031765;28;20021;-69
2022/04/09 06:00:09;;;;;;;16.75;12.60;;;21.50;99.90;;;;;;5032120;28;20045;-68
2022/04/09 06:02:37;;;;;;;19.27;14.50;;;21.40;99.90;;;;;;5047996;28;20445;-69
2022/04/09 06:05:03;;;;;;;17.83;12.75;;;21.40;99.90;;;;;;5032894;28;20084;-67
2022/04/09 06:07:30;;;;;;;19.95;13.40;;;21.40;99.90;;;;;;5031424;28;20358;-67
2022/04/09 06:09:57;;;;;;;17.70;13.38;;;21.40;99.90;;;;;;5032757;28;20028;-68
2022/04/09 06:12:23;;;;;;;17.48;12.57;;;21.40;99.90;;;;;;5033031;28;20047;-69
2022/04/09 06:14:49;;;;;;;18.90;14.02;;;21.50;99.90;;;;;;5032664;28;20025;-68
2022/04/09 06:17:14;;;;;;;18.33;13.80;;;21.50;99.90;;;;;;5031398;28;20546;-63
2022/04/09 06:19:40;;;;;;;19.08;13.75;;;21.40;99.90;;;;;;5032734;28;20021;-65
2022/04/09 06:22:06;;;;;;;18.95;14.60;;;21.40;99.90;;;;;;5032120;28;20469;-63
2022/04/09 06:24:32;;;;;;;17.75;14.00;;;21.50;99.90;;;;;;5032560;28;20538;-61
2022/04/09 06:26:58;;;;;;;19.35;13.35;;;21.50;99.90;;;;;;5032533;28;20100;-66
2022/04/09 06:29:24;;;;;;;15.20;12.15;;;21.40;99.90;;;;;;5031314;28;20032;-68
2022/04/09 06:31:50;;;;;;;21.55;14.68;;;21.40;99.90;;;;;;5030831;28;20389;-68
2022/04/09 06:34:17;;;;;;;18.10;13.02;;;21.50;99.90;;;;;;5032164;28;20477;-67
2022/04/09 06:36:43;;;;;;;19.02;13.88;;;21.50;99.90;;;;;;5032207;28;20419;-68
2022/04/09 06:39:10;;;;;;;16.38;12.40;;;21.50;99.90;;;;;;5032285;28;20381;-67
2022/04/09 06:41:36;;;;;;;19.13;13.60;;;21.50;99.90;;;;;;5032147;28;20022;-67
2022/04/09 06:44:05;;;;;;;19.17;13.10;;;21.40;99.90;;;;;;5031834;28;20042;-67
2022/04/09 06:46:31;;;;;;;19.35;13.95;;;21.50;99.90;;;;;;5030679;28;20032;-67
2022/04/09 06:48:57;;;;;;;17.45;13.10;;;21.50;99.90;;;;;;5030625;28;20025;-67
2022/04/09 06:51:23;;;;;;;17.55;12.95;;;21.50;99.90;;;;;;5031854;28;20021;-67
2022/04/09 06:53:49;;;;;;;16.60;12.52;;;21.50;99.90;;;;;;5032027;28;20074;-67
2022/04/09 06:56:15;;;;;;;16.63;12.48;;;21.50;99.90;;;;;;5031880;28;20097;-67
2022/04/09 06:58:40;;;;;;;19.58;12.88;;;21.50;99.90;;;;;;5031841;28;20021;-67
2022/04/09 07:01:06;;;;;;;18.48;12.52;;;21.50;99.90;;;;;;5031724;28;20203;-61
2022/04/09 07:03:32;;;;;;;15.77;12.52;;;21.50;99.90;;;;;;5031893;28;20083;-65
2022/04/09 07:05:58;;;;;;;15.27;11.73;;;21.50;99.90;;;;;;5030460;28;20032;-63
2022/04/09 07:08:24;;;;;;;18.73;12.80;;;21.50;99.90;;;;;;5031807;28;20025;-63
2022/04/09 07:10:50;;;;;;;18.80;13.52;;;21.50;99.90;;;;;;5030101;28;20466;-62
2022/04/09 07:13:16;;;;;;;18.35;12.98;;;21.50;99.90;;;;;;5030800;28;20044;-63
2022/04/09 07:15:43;;;;;;;21.52;15.50;;;21.50;99.90;;;;;;5031633;28;20428;-62
2022/04/09 07:18:09;;;;;;;23.05;16.58;;;21.50;99.90;;;;;;5030313;28;20056;-64
2022/04/09 07:20:36;;;;;;;23.25;16.40;;;21.50;99.90;;;;;;5031395;28;20049;-64
2022/04/09 07:23:02;;;;;;;19.90;15.85;;;21.50;99.90;;;;;;5030116;28;20067;-66
2022/04/09 07:25:29;;;;;;;20.67;16.58;;;21.50;99.90;;;;;;5031469;28;20104;-67
2022/04/09 07:27:55;;;;;;;23.48;17.13;;;21.50;99.90;;;;;;5031489;28;20377;-68
2022/04/09 07:30:22;;;;;;;22.75;16.80;;;21.50;99.90;;;;;;5031221;28;20034;-65
2022/04/09 07:32:49;;;;;;;22.35;16.23;;;21.60;99.90;;;;;;5031456;28;20517;-66
2022/04/09 07:35:15;;;;;;;22.42;16.83;;;21.60;99.90;;;;;;5031352;28;20508;-66
2022/04/09 07:37:50;;;;;;;22.73;15.77;;;21.60;99.90;;;;;;5029999;28;20550;-66
2022/04/09 07:40:19;;;;;;;18.38;14.18;;;21.60;99.90;;;;;;5031228;28;20052;-66
2022/04/09 07:42:45;;;;;;;19.77;14.27;;;21.60;99.90;;;;;;5031037;28;20496;-72
2022/04/09 07:45:13;;;;;;;20.20;15.07;;;21.60;99.90;;;;;;5031250;28;20060;-68
2022/04/09 07:47:40;;;;;;;16.83;13.35;;;21.60;99.90;;;;;;5029627;28;20090;-68
2022/04/09 07:50:10;;;;;;;18.38;13.70;;;21.60;99.90;;;;;;5031060;28;20014;-68
2022/04/09 07:52:38;;;;;;;16.08;11.70;;;21.60;99.90;;;;;;5030889;28;20484;-68
2022/04/09 07:55:08;;;;;;;17.40;12.70;;;21.60;99.90;;;;;;5031166;28;20108;-67
2022/04/09 07:57:34;;;;;;;15.90;12.20;;;21.60;99.90;;;;;;5030969;28;20222;-68
2022/04/09 08:00:00;;;;;;;16.35;12.55;;;21.60;99.90;;;;;;5030890;28;20045;-67
2022/04/09 08:02:26;;;;;;;15.15;11.63;;;21.60;99.90;;;;;;5029766;28;20034;-68
2022/04/09 08:04:52;;;;;;;16.23;11.85;;;21.60;99.90;;;;;;5031043;28;20531;-68
2022/04/09 08:07:18;;;;;;;14.23;10.20;;;21.60;99.90;;;;;;5031119;28;20295;-68
2022/04/09 08:09:44;;;;;;;13.85;10.15;;;21.60;99.90;;;;;;5030821;28;20032;-68
2022/04/09 08:12:12;;;;;;;13.98;9.93;;;21.60;99.90;;;;;;5030867;28;20053;-67
2022/04/09 08:14:44;;;;;;;12.55;9.07;;;21.60;99.90;;;;;;5030716;28;20021;-66
2022/04/09 08:17:11;;;;;;;11.88;9.10;;;21.70;99.90;;;;;;5030801;28;20048;-66
2022/04/09 08:19:36;;;;;;;10.57;8.32;;;21.70;99.90;;;;;;5030707;28;20025;-66
2022/04/09 08:22:03;;;;;;;12.05;9.30;;;21.70;99.90;;;;;;5030606;28;20185;-67
2022/04/09 08:24:30;;;;;;;10.63;8.05;;;21.70;99.90;;;;;;5033468;28;20100;-67
2022/04/09 08:26:56;;;;;;;8.95;6.85;;;21.70;99.90;;;;;;5034623;28;20056;-68
2022/04/09 08:29:23;;;;;;;10.63;7.47;;;21.70;99.90;;;;;;5034492;28;20030;-68
2022/04/09 08:31:48;;;;;;;13.23;7.03;;;21.70;99.90;;;;;;5033405;28;20029;-68
2022/04/09 08:34:15;;;;;;;10.00;7.30;;;21.70;99.90;;;;;;5034301;28;20033;-69
2022/04/09 08:36:41;;;;;;;7.93;6.32;;;21.70;99.90;;;;;;5034431;28;20022;-68
2022/04/09 08:39:07;;;;;;;9.52;6.35;;;21.70;99.90;;;;;;5034569;28;20369;-66
2022/04/09 08:41:36;;;;;;;11.50;7.00;;;21.70;99.90;;;;;;5034331;28;20025;-70
2022/04/09 08:44:02;;;;;;;13.73;6.90;;;21.70;99.90;;;;;;5033127;28;20037;-68
2022/04/09 08:46:30;;;;;;;9.23;5.32;;;21.80;99.90;;;;;;5034405;28;20026;-70
2022/04/09 08:48:58;;;;;;;11.38;6.07;;;21.80;99.90;;;;;;5034328;28;20468;-69
2022/04/09 08:51:25;;;;;;;10.13;6.25;;;21.80;99.90;;;;;;5034180;28;20112;-69
2022/04/09 08:53:52;;;;;;;7.65;5.25;;;21.70;99.90;;;;;;5034354;28;20017;-70
2022/04/09 08:56:18;;;;;;;8.60;6.32;;;21.80;99.90;;;;;;5034270;28;20049;-65
2022/04/09 08:58:44;;;;;;;9.70;6.20;;;21.80;99.90;;;;;;5033874;28;20021;-66
2022/04/09 09:01:10;;;;;;;10.70;6.63;;;21.80;99.90;;;;;;5034061;28;20053;-66
2022/04/09 09:03:36;;;;;;;11.95;7.28;;;21.80;99.90;;;;;;5033944;28;20040;-65
2022/04/09 09:06:28;;;;;;;8.95;6.53;;;21.80;99.90;;;;;;5034303;28;20049;-65
2022/04/09 09:08:55;;;;;;;11.75;6.60;;;21.80;99.90;;;;;;5034187;28;20136;-65
2022/04/09 09:11:22;;;;;;;11.70;6.80;;;21.80;99.90;;;;;;5034050;28;20017;-66
2022/04/09 09:13:53;;;;;;;10.30;7.32;;;21.80;99.90;;;;;;5032760;28;20113;-65
2022/04/09 09:16:31;;;;;;;9.38;6.53;;;21.80;99.90;;;;;;5033984;28;20029;-66
2022/04/09 09:19:04;;;;;;;10.50;6.53;;;21.90;99.90;;;;;;5033671;28;20096;-66
2022/04/09 09:21:30;;;;;;;9.75;6.90;;;21.90;99.90;;;;;;5033920;28;20022;-66
2022/04/09 09:24:12;;;;;;;9.43;6.68;;;21.90;99.90;;;;;;5033494;28;20539;-65
2022/04/09 09:26:38;;;;;;;11.57;7.20;;;21.90;99.90;;;;;;5033582;28;20104;-66
2022/04/09 09:29:05;;;;;;;10.98;7.15;;;21.90;99.90;;;;;;5033895;28;20026;-66
2022/04/09 09:31:50;;;;;;;11.55;7.18;;;21.90;99.90;;;;;;5033776;28;20032;-65
2022/04/09 09:34:20;;;;;;;11.88;6.63;;;21.90;99.90;;;;;;5033515;28;20030;-66
2022/04/09 09:36:47;;;;;;;11.93;7.15;;;21.90;99.90;;;;;;5032339;28;20032;-65
2022/04/09 09:39:17;;;;;;;11.73;6.72;;;21.90;99.90;;;;;;5033386;28;20485;-65
2022/04/09 09:41:57;;;;;;;10.82;6.43;;;22.00;99.90;;;;;;5033372;28;20057;-65
2022/04/09 09:44:31;;;;;;;11.60;6.70;;;22.00;99.90;;;;;;5033208;28;20091;-66
2022/04/09 09:47:06;;;;;;;10.52;6.28;;;21.90;99.90;;;;;;5032423;28;20017;-66
2022/04/09 09:49:37;;;;;;;9.18;5.93;;;22.00;99.90;;;;;;5033313;28;20033;-65
2022/04/09 09:52:11;;;;;;;10.13;6.80;;;22.10;99.90;;;;;;5033302;28;20087;-66
2022/04/09 09:54:58;;;;;;;9.93;5.85;;;22.00;99.90;;;;;;5032909;28;20397;-65
2022/04/09 09:57:29;;;;;;;8.02;6.03;;;22.10;99.90;;;;;;5031610;28;20550;-65
2022/04/09 09:59:57;;;;;;;9.40;6.07;;;22.10;99.90;;;;;;5032960;28;20466;-65
2022/04/09 10:02:24;;;;;;;9.80;6.10;;;22.10;99.90;;;;;;5032962;28;20025;-65
2022/04/09 10:04:54;;;;;;;9.07;5.78;;;22.20;99.90;;;;;;5032877;28;20041;-65
2022/04/09 10:07:20;;;;;;;8.75;6.30;;;22.20;99.90;;;;;;5032804;28;20508;-65
2022/04/09 10:09:49;;;;;;;12.57;6.85;;;22.20;99.90;;;;;;5032763;28;20025;-65
2022/04/09 10:12:18;;;;;;;10.02;6.28;;;22.20;99.90;;;;;;5032612;28;20477;-65
2022/04/09 10:14:54;;;;;;;9.00;5.80;;;22.20;99.90;;;;;;5031318;28;20124;-66
2022/04/09 10:17:20;;;;;;;9.13;6.03;;;22.30;99.90;;;;;;5032721;28;20075;-65
2022/04/09 10:19:54;;;;;;;8.93;6.03;;;22.30;99.90;;;;;;5032497;28;20033;-65
2022/04/09 10:22:22;;;;;;;9.50;6.30;;;22.30;99.90;;;;;;5032386;28;20060;-65
2022/04/09 10:24:50;;;;;;;8.45;6.47;;;22.40;99.90;;;;;;5032591;28;20469;-65
2022/04/09 10:27:35;;;;;;;;;;;22.40;99.90;;;;;;5033045;28;20148;-65
2022/04/09 10:30:04;;;;;;;9.60;6.00;;;22.40;99.90;;;;;;5032401;28;19912;-65
2022/04/09 10:32:44;;;;;;;7.50;5.00;;;22.40;99.90;;;;;;5032256;28;20056;-65
2022/04/09 10:35:38;;;;;;;10.27;6.00;;;22.40;99.90;;;;;;5032147;28;20034;-62
2022/04/09 10:38:07;;;;;;;10.00;6.32;;;22.40;99.90;;;;;;5032066;28;20105;-63
2022/04/09 10:40:57;;;;;;;11.85;6.80;;;22.40;99.90;;;;;;5032206;28;20057;-63
2022/04/09 10:43:23;;;;;;;6.90;5.28;;;22.40;99.90;;;;;;5031911;28;20116;-66
2022/04/09 10:46:05;;;;;;;7.57;5.45;;;22.50;99.90;;;;;;5032012;28;20025;-65
2022/04/09 10:48:39;;;;;;;8.23;5.57;;;22.50;99.90;;;;;;5031983;28;20022;-65
2022/04/09 10:51:11;;;;;;;9.10;5.15;;;22.50;99.90;;;;;;5032258;28;20087;-65
2022/04/09 10:53:44;;;;;;;9.27;5.53;;;22.50;99.90;;;;;;5031935;28;20072;-63
2022/04/09 10:56:24;;;;;;;8.20;5.38;;;22.50;99.90;;;;;;5031642;28;20112;-63
2022/04/09 10:59:09;;;;;;;9.13;5.30;;;22.50;99.90;;;;;;5031425;28;20021;-63
2022/04/09 11:01:46;;;;;;;8.43;5.85;;;22.50;99.90;;;;;;5031731;28;20405;-63
2022/04/09 11:04:36;;;;;;;8.27;5.32;;;22.50;99.90;;;;;;5031612;28;20115;-65
2022/04/09 11:07:12;;;;;;;8.15;4.88;;;22.60;99.90;;;;;;5023946;28;20040;-65
2022/04/09 11:09:51;;;;;;;6.90;4.90;;;22.60;99.90;;;;;;5031795;28;20018;-66
2022/04/09 11:12:27;;;;;;;10.23;5.70;;;22.60;99.90;;;;;;5031550;28;20025;-62
2022/04/09 11:14:57;;;;;;;7.63;4.97;;;22.60;99.90;;;;;;5031330;28;20512;-62
2022/04/09 11:17:34;;;;;;;9.25;4.97;;;22.60;99.90;;;;;;5031243;28;20406;-64
2022/04/09 11:20:14;;;;;;;9.30;5.35;;;22.60;99.90;;;;;;5031475;28;20504;-63
2022/04/09 11:22:44;;;;;;;6.57;4.93;;;22.70;99.90;;;;;;5031565;28;20091;-64
2022/04/09 11:25:26;;;;;;;7.70;5.65;;;22.70;99.90;;;;;;5031478;28;20068;-64
2022/04/09 11:28:06;;;;;;;8.00;5.32;;;22.70;99.90;;;;;;5031295;28;20053;-63
2022/04/09 11:30:31;;;;;;;6.93;4.75;;;22.70;99.90;;;;;;5031050;28;20037;-64
2022/04/09 11:32:57;;;;;;;7.40;5.18;;;22.70;99.90;;;;;;5031220;28;20038;-64
2022/04/09 11:35:26;;;;;;;6.22;4.57;;;22.70;99.90;;;;;;5031061;28;20104;-63
2022/04/09 11:37:52;;;;;;;7.38;4.93;;;22.70;99.90;;;;;;5031275;28;20053;-63
2022/04/09 11:40:21;;;;;;;6.82;4.55;;;22.70;99.90;;;;;;5031059;28;20427;-64
2022/04/09 11:42:49;;;;;;;7.22;5.00;;;22.70;99.90;;;;;;5030986;28;20030;-63
2022/04/09 11:45:18;;;;;;;;;;;22.80;99.90;;;;;;5031484;28;20500;-64
2022/04/09 11:47:44;;;;;;;7.75;5.30;;;22.80;99.90;;;;;;5031091;28;20288;-64
2022/04/09 11:50:14;;;;;;;6.43;4.45;;;22.80;99.90;;;;;;5031304;28;20026;-63
2022/04/09 11:52:41;;;;;;;6.72;5.03;;;22.80;99.90;;;;;;5031271;28;20037;-64
2022/04/09 11:55:11;;;;;;;6.00;5.00;;;22.80;99.90;;;;;;5031144;28;20053;-64
2022/04/09 11:57:38;;;;;;;7.47;4.75;;;22.80;99.90;;;;;;5030580;28;20034;-63
2022/04/09 12:00:08;;;;;;;7.32;4.55;;;22.80;99.90;;;;;;5030577;28;20056;-64
2022/04/09 12:02:36;;;;;;;5.25;4.00;;;22.80;99.90;;;;;;5030812;28;20057;-65
2022/04/09 12:05:03;;;;;;;5.97;4.55;;;22.80;99.90;;;;;;5030878;28;20072;-64
2022/04/09 12:07:30;;;;;;;9.05;4.72;;;22.80;99.90;;;;;;5030763;28;20029;-64
2022/04/09 12:09:56;;;;;;;6.28;4.43;;;22.90;99.90;;;;;;5030869;28;20033;-64
2022/04/09 12:12:23;;;;;;;9.15;4.80;;;22.90;99.90;;;;;;5030889;28;20048;-64
2022/04/09 12:14:58;;;;;;;6.77;4.63;;;22.80;99.90;;;;;;5030961;28;20029;-65
2022/04/09 12:17:35;;;;;;;8.00;4.75;;;22.90;99.90;;;;;;5031041;28;20507;-63
2022/04/09 12:20:39;;;;;;;6.25;4.20;;;22.90;99.90;;;;;;5031021;28;20033;-63
2022/04/09 12:23:06;;;;;;;5.72;4.03;;;22.90;99.90;;;;;;5027691;28;20439;-63
2022/04/09 12:25:42;;;;;;;7.83;4.70;;;22.90;99.90;;;;;;5031017;28;20025;-63
2022/04/09 12:28:25;;;;;;;6.07;4.28;;;22.90;99.90;;;;;;5030878;28;20534;-63
2022/04/09 12:30:53;;;;;;;6.72;4.30;;;22.90;99.90;;;;;;5030922;28;20037;-63
2022/04/09 12:33:20;;;;;;;7.30;4.50;;;22.90;99.90;;;;;;5030984;28;20017;-63
2022/04/09 12:35:47;;;;;;;8.00;4.43;;;22.90;99.90;;;;;;5030859;28;20029;-63
2022/04/09 12:38:36;;;;;;;5.85;4.25;;;22.90;99.90;;;;;;5029657;28;20041;-63
2022/04/09 12:41:05;;;;;;;5.18;3.97;;;22.90;99.90;;;;;;5030794;28;20548;-63